NY/NJ Local METAR Reports

 

KNYC - NYC/Central Park, NY, USA
Distance from Hoboken: NE 4mi, 7km
Updated: 08/09/2020 8:51am

 Wind from W
Wind: W 5 mph , 7 km/h
Temperature: 75°F , 24°C
Dew Point: 70°F , 21°C
Humidity: 83%
Barometer: 30.17 inHg , 1021.7 hPa
Visibility: 8 miles , 13 km
2020/08/09 12:51 KNYC 091251Z AUTO 26004KT 8SM 24/21 A3017 RMK AO2 SLP205 T02440206 $
KEWR - Newark, NJ, USA
Distance from Hoboken: WSW 8mi, 13km
Updated: 08/09/2020 8:51am
Mostly cloudy
Mostly cloudy
 Wind from SW
Wind: SW 5 mph , 7 km/h
Temperature: 77°F , 25°C
Dew Point: 72°F , 22°C
Humidity: 83%
Barometer: 30.13 inHg , 1020.3 hPa
Clouds: Mostly cloudy
Visibility: 10 miles , 16 km
Cloud details: Few Clouds 4000 ft
Few Clouds 18000 ft
Mostly cloudy 25000 ft
2020/08/09 12:51 KEWR 091251Z 22004KT 10SM FEW040 FEW180 BKN250 25/22 A3013 RMK AO2 SLP204 T02500217
 
KLGA - NYC/La Guardia, NY, USA
Distance from Hoboken: ENE 8mi, 13km
Updated: 08/09/2020 8:51am
Mostly cloudy
Mostly cloudy
 Wind from calm
Wind: Calm
Temperature: 79°F , 26°C
Dew Point: 70°F , 21°C
Humidity: 74%
Barometer: 30.13 inHg , 1020.3 hPa
Clouds: Mostly cloudy
Visibility: 8 miles , 13 km
Cloud details: Few Clouds 1200 ft
Few Clouds 3300 ft
Partly cloudy 17000 ft
Mostly cloudy 25000 ft
2020/08/09 12:51 KLGA 091251Z 00000KT 8SM FEW012 FEW033 SCT170 BKN250 26/21 A3013 RMK AO2 SLP203 T02560211
KTEB - Teterboro, NJ, USA
Distance from Hoboken: N 9mi, 14km
Updated: 08/09/2020 8:51am
Clear
Clear
 Wind from S
Wind: S 5 mph , 7 km/h
Temperature: 73°F , 23°C
Dew Point: 72°F , 22°C
Humidity: 94%
Barometer: 30.13 inHg , 1020.3 hPa
Clouds: Clear
Visibility: 10 miles , 16 km
2020/08/09 12:51 KTEB 091251Z 18004KT 10SM CLR 23/22 A3013 RMK AO2 SLP202 T02330217
 
KJFK - NYC/Jfk Arpt, NY, USA
Distance from Hoboken: ESE 16mi, 25km
Updated: 08/09/2020 8:51am
Mostly cloudy
Mostly cloudy
 Wind from WSW
Wind: WSW 6 mph , 9 km/h
Temperature: 75°F , 24°C
Dew Point: 72°F , 22°C
Humidity: 89%
Barometer: 30.15 inHg , 1021 hPa
Clouds: Mostly cloudy
Visibility: 7 miles , 11 km
Cloud details: Few Clouds 900 ft
Mostly cloudy 25000 ft
2020/08/09 12:51 KJFK 091251Z 24005KT 7SM FEW009 BKN250 24/22 A3015 RMK AO2 SLP209 T02440217 $
KCDW - Caldwell, NJ, USA
Distance from Hoboken: NW 16mi, 26km
Updated: 08/09/2020 9:39am
Few Clouds
Few Clouds
 Wind from calm
Wind: Calm
Temperature: 79°F , 26°C
Dew Point: 70°F , 21°C
Humidity: 74%
Barometer: 30.14 inHg , 1020.7 hPa
Clouds: Few Clouds
Visibility: 10 miles , 16 km
Cloud details: Few Clouds 1200 ft
2020/08/09 13:39 KCDW 091339Z 00000KT 10SM FEW012 26/21 A3014 RMK AO2 T02560211 $
 
KMMU - Morristown Muni, NJ, USA
Distance from Hoboken: W 20mi, 33km
Updated: 08/09/2020 8:45am
Overcast
Overcast
 Wind from WSW
Wind: WSW 5 mph , 7 km/h
Temperature: 79°F , 26°C
Dew Point: 77°F , 25°C
Humidity: 94%
Barometer: 30.15 inHg , 1021 hPa
Clouds: Overcast
Visibility: 10 miles , 16 km
Cloud details: Overcast 1000 ft
2020/08/09 12:45 KMMU 091245Z 24004KT 10SM OVC010 26/25 A3015
KHPN - White Plains, NY, USA
Distance from Hoboken: NE 28mi, 46km
Updated: 08/09/2020 9:23am
Partly cloudy
Partly cloudy
 Wind from SSW
Wind: SSW 3 mph , 6 km/h
Temperature: 75°F , 24°C
Dew Point: 70°F , 21°C
Humidity: 83%
Barometer: 30.13 inHg , 1020.3 hPa
Clouds: Partly cloudy
Visibility: 8 miles , 13 km
Cloud details: Partly cloudy 700 ft
2020/08/09 13:23 KHPN 091323Z 20003KT 8SM SCT007 24/21 A3013 RMK AO2 T02390206
 
KFRG - Farmingdale, NY, USA
Distance from Hoboken: E 32mi, 52km
Updated: 08/09/2020 9:36am
Mostly cloudy
Mostly cloudy
 Wind from S
Wind: S 7 mph , 11 km/h
Temperature: 79°F , 26°C
Dew Point: 72°F , 22°C
Humidity: 79%
Barometer: 30.13 inHg , 1020.3 hPa
Clouds: Mostly cloudy
Visibility: 10 miles , 16 km
Cloud details: Mostly cloudy 1000 ft
2020/08/09 13:36 KFRG 091336Z 18006KT 10SM BKN010 26/22 A3013 RMK AO2 CIG 008V012 T02560217
KSMQ - Somerville, NJ, USA
Distance from Hoboken: WSW 34mi, 55km
Updated: 08/09/2020 8:53am
Overcast
Overcast
 Wind from calm
Wind: Calm
Temperature: 75°F , 24°C
Dew Point: 72°F , 22°C
Humidity: 89%
Barometer: 30.13 inHg , 1020.3 hPa
Clouds: Overcast
Visibility: 7 miles , 11 km
Cloud details: Overcast 1100 ft
2020/08/09 12:53 KSMQ 091253Z AUTO 00000KT 7SM OVC011 24/22 A3013 RMK AO2 SLP202 T02390217
 
KBLM - Belmar/Farmdale, NJ, USA
Distance from Hoboken: S 40mi, 64km
Updated: 08/09/2020 8:56am
Clear
Clear
 Wind from W
Wind: W 7 mph , 11 km/h
Temperature: 79°F , 26°C
Dew Point: 75°F , 24°C
Humidity: 89%
Barometer: 30.16 inHg , 1021.3 hPa
Clouds: Clear
Visibility: 10 miles , 16 km
2020/08/09 12:56 KBLM 091256Z AUTO 27006KT 10SM CLR 26/24 A3016 RMK AO2 SLP212 T02560244
K12N - Andover, NJ, USA
Distance from Hoboken: WNW 41mi, 67km
Updated: 08/09/2020 8:54am

 Wind from SSW
Wind: SSW 3 mph , 6 km/h
Temperature: 73°F , 23°C
Dew Point: 70°F , 21°C
Humidity: 89%
Barometer: 30.15 inHg , 1021 hPa
2020/08/09 12:54 K12N 091254Z AUTO 21003KT 23/21 A3015 RMK AO1 SLP203 T02280211
 
KFWN - Sussex, NJ, USA
Distance from Hoboken: NW 45mi, 72km
Updated: 08/09/2020 8:53am
Mist, Overcast
Mist, Overcast
 Wind from calm
Wind: Calm
Temperature: 70°F , 21°C
Dew Point: 70°F , 21°C
Humidity: 100%
Barometer: 30.14 inHg , 1020.7 hPa
Summary: Mist
Clouds: Overcast
Visibility: 6 miles , 10 km
Cloud details: Overcast 200 ft
2020/08/09 12:53 KFWN 091253Z AUTO 00000KT 6SM BR OVC002 21/21 A3014 RMK AO2 SLP205 T02110206
KISP - Islip, NY, USA
Distance from Hoboken: E 49mi, 79km
Updated: 08/09/2020 8:56am
Overcast
Overcast
 Wind from SSW
Wind: SSW 8 mph , 13 km/h
Temperature: 73°F , 23°C
Dew Point: 72°F , 22°C
Humidity: 94%
Barometer: 30.14 inHg , 1020.7 hPa
Clouds: Overcast
Visibility: 10 miles , 16 km
Cloud details: Overcast 600 ft
2020/08/09 12:56 KISP 091256Z 21007KT 10SM OVC006 23/22 A3014 RMK AO2 SLP207 T02280222